createdAt,value
2023-01-22T00:03:58.919Z,2.33
2023-01-22T00:09:04.110Z,2.79
2023-01-22T00:14:08.005Z,2.93
2023-01-22T00:19:12.040Z,3.20
2023-01-22T00:24:15.307Z,3.37
2023-01-22T00:29:19.495Z,3.46
2023-01-22T00:34:22.509Z,3.44
2023-01-22T00:39:26.721Z,3.72
2023-01-22T00:44:29.913Z,3.38
2023-01-22T00:49:33.995Z,3.14
2023-01-22T00:54:37.829Z,3.26
2023-01-22T00:59:41.587Z,3.12
2023-01-22T01:04:45.286Z,2.76
2023-01-22T01:09:48.910Z,2.28
2023-01-22T01:14:52.601Z,1.95
2023-01-22T01:19:55.744Z,1.60
2023-01-22T01:24:58.899Z,1.63
2023-01-22T01:30:02.118Z,1.68
2023-01-22T01:35:06.334Z,1.51
2023-01-22T01:40:10.457Z,1.45
2023-01-22T01:45:29.153Z,1.32
2023-01-22T01:50:32.364Z,1.41
2023-01-22T01:55:38.712Z,1.46
2023-01-22T02:00:45.113Z,1.69
2023-01-22T02:05:48.373Z,1.71
2023-01-22T02:10:52.463Z,1.72
2023-01-22T02:15:56.243Z,1.72
2023-01-22T02:21:01.362Z,1.69
2023-01-22T02:26:04.763Z,1.96
2023-01-22T02:31:08.758Z,2.02
2023-01-22T02:36:12.091Z,2.28
2023-01-22T02:41:15.727Z,2.61
2023-01-22T02:46:20.295Z,2.60
2023-01-22T02:51:23.441Z,2.60
2023-01-22T02:56:26.698Z,2.77
2023-01-22T03:01:29.965Z,2.92
2023-01-22T03:06:36.118Z,2.91
2023-01-22T03:11:41.823Z,3.12
2023-01-22T03:17:08.349Z,3.00
2023-01-22T03:22:12.298Z,3.07
2023-01-22T03:27:15.907Z,3.15
2023-01-22T03:32:20.124Z,2.96
2023-01-22T03:37:23.673Z,3.10
2023-01-22T03:42:30.219Z,2.94
2023-01-22T03:47:33.384Z,3.10
2023-01-22T03:52:39.316Z,3.23
2023-01-22T03:57:42.670Z,3.12
2023-01-22T04:02:46.544Z,3.09
2023-01-22T04:07:57.257Z,3.01
2023-01-22T04:13:05.166Z,3.22
2023-01-22T04:18:08.980Z,3.20
2023-01-22T04:23:26.673Z,3.34
2023-01-22T04:28:30.009Z,3.45
2023-01-22T04:33:34.837Z,3.19
2023-01-22T04:38:45.591Z,2.96
2023-01-22T04:43:48.675Z,3.19
2023-01-22T04:48:52.468Z,3.10
2023-01-22T04:53:55.739Z,3.37
2023-01-22T04:59:01.731Z,3.24
2023-01-22T05:04:05.101Z,3.27
2023-01-22T05:09:10.661Z,3.09
2023-01-22T05:14:26.957Z,2.97
2023-01-22T05:19:30.887Z,2.78
2023-01-22T05:24:34.733Z,2.81
2023-01-22T05:29:38.548Z,2.64
2023-01-22T05:35:00.759Z,2.68
2023-01-22T05:40:05.608Z,2.87
2023-01-22T05:45:11.591Z,3.11
2023-01-22T05:50:25.695Z,3.11
2023-01-22T05:55:38.136Z,2.98
2023-01-22T06:00:41.436Z,3.11
2023-01-22T06:05:47.376Z,3.15
2023-01-22T06:10:59.232Z,3.11
2023-01-22T06:16:02.998Z,3.07
2023-01-22T06:21:24.807Z,3.37
2023-01-22T06:26:29.908Z,3.19
2023-01-22T06:31:35.274Z,3.24
2023-01-22T06:36:43.649Z,3.47
2023-01-22T06:41:49.331Z,3.51
2023-01-22T06:46:53.132Z,3.78
2023-01-22T06:52:07.255Z,3.62
2023-01-22T06:57:10.266Z,3.65
2023-01-22T07:02:20.041Z,3.70
2023-01-22T07:07:23.381Z,3.56
2023-01-22T07:12:26.504Z,3.71
2023-01-22T07:17:29.993Z,4.12
2023-01-22T07:22:33.507Z,6.28
2023-01-22T07:27:38.764Z,5.18
2023-01-22T07:32:42.801Z,4.61
2023-01-22T07:37:58.107Z,4.37
2023-01-22T07:43:07.040Z,4.21
2023-01-22T07:48:13.728Z,4.32
2023-01-22T07:53:18.168Z,4.20
2023-01-22T07:58:22.001Z,4.38
2023-01-22T08:03:25.952Z,4.42
2023-01-22T08:08:29.441Z,4.36
2023-01-22T08:13:32.689Z,4.37
2023-01-22T08:18:36.807Z,4.61
2023-01-22T08:23:39.970Z,4.79
2023-01-22T08:28:43.297Z,4.58
2023-01-22T08:33:46.834Z,4.66
2023-01-22T08:38:50.749Z,4.85
2023-01-22T08:43:54.472Z,4.97
2023-01-22T08:48:58.580Z,4.88
2023-01-22T08:54:01.983Z,5.19
2023-01-22T08:59:06.894Z,5.07
2023-01-22T09:04:11.638Z,5.32
2023-01-22T09:09:14.821Z,4.93
2023-01-22T09:14:18.126Z,5.00
2023-01-22T09:19:21.765Z,4.75
2023-01-22T09:24:25.551Z,4.88
2023-01-22T09:29:28.675Z,4.78
2023-01-22T09:34:33.702Z,4.51
2023-01-22T09:39:36.878Z,4.63
2023-01-22T09:44:44.969Z,4.39
2023-01-22T09:50:05.110Z,4.23
2023-01-22T09:55:19.336Z,4.15
2023-01-22T10:00:33.875Z,4.18
2023-01-22T10:05:52.233Z,4.03
2023-01-22T10:10:56.381Z,3.98
2023-01-22T10:16:01.783Z,3.81
2023-01-22T10:21:11.566Z,3.99
2023-01-22T10:26:25.303Z,5.16
2023-01-22T10:31:33.988Z,6.50
2023-01-22T10:36:38.006Z,6.28
2023-01-22T10:41:43.404Z,6.12
2023-01-22T10:46:46.931Z,5.84
2023-01-22T10:51:54.272Z,5.85
2023-01-22T10:57:28.372Z,5.49
2023-01-22T11:02:35.821Z,5.38
2023-01-22T11:07:39.655Z,5.06
2023-01-22T11:13:29.308Z,4.82
2023-01-22T11:18:37.005Z,4.80
2023-01-22T11:23:49.784Z,4.67
2023-01-22T11:29:13.900Z,4.45
2023-01-22T11:34:26.472Z,4.41
2023-01-22T11:39:59.838Z,4.54
2023-01-22T11:45:18.899Z,4.80
2023-01-22T11:50:25.516Z,4.91
2023-01-22T11:55:54.907Z,4.87
2023-01-22T12:01:07.612Z,4.57
2023-01-22T12:06:28.590Z,4.58
2023-01-22T12:11:54.040Z,4.42
2023-01-22T12:17:13.457Z,4.19
2023-01-22T12:22:19.610Z,4.03
2023-01-22T12:27:36.298Z,3.90
2023-01-22T12:32:43.536Z,3.68
2023-01-22T12:37:53.366Z,3.58
2023-01-22T12:43:02.434Z,3.58
2023-01-22T12:48:24.567Z,3.48
2023-01-22T12:53:36.828Z,3.31
2023-01-22T12:58:42.390Z,3.25
2023-01-22T13:04:04.896Z,3.46
2023-01-22T13:09:25.510Z,3.75
2023-01-22T13:14:31.728Z,4.07
2023-01-22T13:19:42.574Z,4.07
2023-01-22T13:25:03.699Z,3.96
2023-01-22T13:30:28.378Z,4.15
2023-01-22T13:35:31.635Z,3.96
2023-01-22T13:40:50.261Z,3.79
2023-01-22T13:45:56.634Z,3.77
2023-01-22T13:51:03.832Z,3.84
2023-01-22T13:56:12.165Z,3.86
2023-01-22T14:01:28.933Z,4.09
2023-01-22T14:06:43.948Z,4.55
2023-01-22T14:11:48.678Z,4.46
2023-01-22T14:16:53.531Z,4.50
2023-01-22T14:21:58.865Z,4.29
2023-01-22T14:27:01.988Z,4.34
2023-01-22T14:32:05.992Z,3.99
2023-01-22T14:37:09.060Z,3.94
2023-01-22T14:42:12.684Z,3.99
2023-01-22T14:47:15.777Z,3.89
2023-01-22T14:52:18.956Z,3.99
2023-01-22T14:57:23.809Z,3.82
2023-01-22T15:02:27.268Z,3.97
2023-01-22T15:07:30.498Z,4.20
2023-01-22T15:12:33.872Z,3.99
2023-01-22T15:17:37.495Z,3.97
2023-01-22T15:22:40.995Z,3.68
2023-01-22T15:27:46.133Z,3.53
2023-01-22T15:32:50.016Z,3.54
2023-01-22T15:37:53.456Z,3.36
2023-01-22T15:42:56.961Z,3.12
2023-01-22T15:48:00.455Z,2.61
2023-01-22T15:53:03.606Z,2.43
2023-01-22T15:58:07.128Z,2.32
2023-01-22T16:03:10.866Z,2.28
2023-01-22T16:08:14.994Z,2.38
2023-01-22T16:13:18.391Z,2.06
2023-01-22T16:18:22.395Z,1.82
2023-01-22T16:23:25.635Z,1.87
2023-01-22T16:28:28.869Z,2.02
2023-01-22T16:33:33.987Z,2.25
2023-01-22T16:38:37.506Z,2.27
2023-01-22T16:43:40.918Z,1.99
2023-01-22T16:48:45.136Z,1.68
2023-01-22T16:53:48.834Z,1.40
2023-01-22T16:58:52.435Z,1.41
2023-01-22T17:03:56.266Z,1.21
2023-01-22T17:09:00.342Z,1.10
2023-01-22T17:14:07.537Z,0.89
2023-01-22T17:19:12.466Z,0.87
2023-01-22T17:24:17.161Z,0.92
2023-01-22T17:29:23.237Z,0.88
2023-01-22T17:34:28.556Z,0.83
2023-01-22T17:39:33.121Z,1.00
2023-01-22T17:44:39.611Z,1.11
2023-01-22T17:49:43.562Z,0.92
2023-01-22T17:54:47.111Z,0.84
2023-01-22T17:59:51.660Z,0.88
2023-01-22T18:04:56.064Z,0.79
2023-01-22T18:09:59.201Z,0.53
2023-01-22T18:15:02.293Z,0.46
2023-01-22T18:20:07.075Z,0.50
2023-01-22T18:25:10.902Z,0.39
2023-01-22T18:30:15.625Z,0.47
2023-01-22T18:35:19.741Z,0.48
2023-01-22T18:40:23.218Z,0.50
2023-01-22T18:45:27.384Z,0.59
2023-01-22T18:50:31.438Z,0.40
2023-01-22T18:55:36.345Z,0.19
2023-01-22T19:00:39.555Z,0.15
2023-01-22T19:05:43.661Z,0.35
2023-01-22T19:10:47.429Z,0.47
2023-01-22T19:15:51.452Z,0.68
2023-01-22T19:20:54.859Z,0.62
2023-01-22T19:26:11.137Z,0.57
2023-01-22T19:31:19.567Z,0.44
2023-01-22T19:36:30.168Z,0.47
2023-01-22T19:41:33.379Z,0.45
2023-01-22T19:46:38.225Z,0.48
2023-01-22T19:51:41.618Z,0.46
2023-01-22T19:56:45.843Z,0.51
2023-01-22T20:01:50.900Z,0.50
2023-01-22T20:07:05.227Z,0.25
2023-01-22T20:12:10.716Z,0.11
2023-01-22T20:17:14.435Z,-0.21
2023-01-22T20:22:17.965Z,-0.18
2023-01-22T20:27:21.723Z,-0.21
2023-01-22T20:32:25.639Z,-0.29
2023-01-22T20:37:28.882Z,-0.34
2023-01-22T20:42:32.443Z,-0.38
2023-01-22T20:47:36.981Z,-0.56
2023-01-22T20:52:40.261Z,-0.68
2023-01-22T20:57:43.635Z,-0.52
2023-01-22T21:02:50.213Z,-0.58
2023-01-22T21:07:53.915Z,-0.63
2023-01-22T21:12:57.588Z,-0.78
2023-01-22T21:18:01.180Z,-0.74
2023-01-22T21:23:04.826Z,-0.87
2023-01-22T21:28:07.977Z,-1.08
2023-01-22T21:33:12.139Z,-1.20
2023-01-22T21:38:15.722Z,-1.30
2023-01-22T21:43:38.208Z,-1.41
2023-01-22T21:48:41.320Z,-1.43
2023-01-22T21:53:45.323Z,-1.31
2023-01-22T21:58:48.966Z,-0.99
2023-01-22T22:03:52.813Z,-1.03
2023-01-22T22:08:58.313Z,-1.23
2023-01-22T22:14:02.070Z,-1.31
2023-01-22T22:19:05.613Z,-1.36
2023-01-22T22:24:10.090Z,-1.24
2023-01-22T22:29:13.814Z,-1.23
2023-01-22T22:34:17.556Z,-1.29
2023-01-22T22:39:21.026Z,-1.55
2023-01-22T22:44:24.354Z,-1.51
2023-01-22T22:49:27.631Z,-1.67
2023-01-22T22:54:30.696Z,-1.85
2023-01-22T22:59:34.766Z,-1.93
2023-01-22T23:04:38.210Z,-1.83
2023-01-22T23:09:41.242Z,-1.60
2023-01-22T23:14:44.739Z,-0.87
2023-01-22T23:19:48.064Z,-0.19
2023-01-22T23:24:51.681Z,0.31
2023-01-22T23:29:55.152Z,0.54
2023-01-22T23:34:58.228Z,0.68
2023-01-22T23:40:01.924Z,0.49
2023-01-22T23:45:05.407Z,0.59
2023-01-22T23:50:10.764Z,0.58
2023-01-22T23:55:15.165Z,0.55
